createdAt,value
2022-12-14T00:02:37.360Z,57.50
2022-12-14T00:05:06.879Z,70.00
2022-12-14T00:07:35.871Z,65.70
2022-12-14T00:10:05.116Z,62.40
2022-12-14T00:12:34.225Z,61.20
2022-12-14T00:15:04.082Z,54.20
2022-12-14T00:17:33.189Z,56.90
2022-12-14T00:20:15.931Z,48.20
2022-12-14T00:22:44.981Z,52.90
2022-12-14T00:25:14.090Z,57.00
2022-12-14T00:27:56.281Z,62.80
2022-12-14T00:30:39.017Z,59.40
2022-12-14T00:33:21.970Z,58.70
2022-12-14T00:35:50.917Z,58.30
2022-12-14T00:38:34.049Z,51.20
2022-12-14T00:41:16.775Z,48.40
2022-12-14T00:43:45.698Z,41.80
2022-12-14T00:46:18.651Z,58.60
2022-12-14T00:48:47.935Z,57.40
2022-12-14T00:51:16.619Z,58.50
2022-12-14T00:53:45.751Z,52.90
2022-12-14T00:56:28.465Z,46.30
2022-12-14T00:59:11.360Z,50.50
2022-12-14T01:01:40.751Z,58.40
2022-12-14T01:04:23.377Z,53.10
2022-12-14T01:06:53.801Z,58.20
2022-12-14T01:09:25.507Z,46.90
2022-12-14T01:12:08.174Z,48.10
2022-12-14T01:14:50.895Z,43.60
2022-12-14T01:17:33.471Z,47.90
2022-12-14T01:20:03.215Z,50.30
2022-12-14T01:22:45.826Z,50.10
2022-12-14T01:25:14.510Z,57.00
2022-12-14T01:27:57.239Z,56.10
2022-12-14T01:30:26.442Z,55.50
2022-12-14T01:32:55.632Z,53.30
2022-12-14T01:35:24.471Z,57.40
2022-12-14T01:37:53.608Z,54.10
2022-12-14T01:40:22.710Z,61.20
2022-12-14T01:42:51.821Z,55.10
2022-12-14T01:45:22.764Z,41.70
2022-12-14T01:47:58.599Z,49.40
2022-12-14T01:50:45.513Z,48.60
2022-12-14T01:53:28.559Z,45.90
2022-12-14T01:55:57.730Z,53.10
2022-12-14T01:58:40.851Z,57.50
2022-12-14T02:01:23.532Z,58.20
2022-12-14T02:03:54.042Z,48.60
2022-12-14T02:06:29.254Z,54.80
2022-12-14T02:08:58.545Z,50.00
2022-12-14T02:11:39.161Z,63.60
2022-12-14T02:14:08.098Z,55.20
2022-12-14T02:16:38.877Z,50.00
2022-12-14T02:19:08.333Z,56.70
2022-12-14T02:22:15.419Z,42.90
2022-12-14T02:25:23.034Z,50.20
2022-12-14T02:28:23.261Z,46.30
2022-12-14T02:31:28.527Z,48.60
2022-12-14T02:34:14.693Z,45.80
2022-12-14T02:37:11.613Z,47.40
2022-12-14T02:39:47.194Z,41.80
2022-12-14T02:42:27.084Z,53.50
2022-12-14T02:45:43.541Z,50.60
2022-12-14T02:48:36.350Z,46.10
2022-12-14T02:51:26.362Z,51.20
2022-12-14T02:54:26.213Z,45.90
2022-12-14T02:57:21.213Z,40.50
2022-12-14T02:59:57.851Z,48.20
2022-12-14T03:02:28.874Z,60.40
2022-12-14T03:05:00.301Z,44.10
2022-12-14T03:07:50.557Z,44.00
2022-12-14T03:11:02.835Z,42.00
2022-12-14T03:13:41.280Z,46.30
2022-12-14T03:16:42.075Z,45.00
2022-12-14T03:19:24.880Z,45.20
2022-12-14T03:22:01.832Z,41.70
2022-12-14T03:24:39.625Z,47.80
2022-12-14T03:27:25.593Z,45.40
2022-12-14T03:30:03.463Z,46.70
2022-12-14T03:32:36.289Z,55.40
2022-12-14T03:35:41.392Z,40.00
2022-12-14T03:38:36.555Z,47.90
2022-12-14T03:41:36.377Z,41.60
2022-12-14T03:45:10.407Z,50.30
2022-12-14T03:48:00.033Z,42.60
2022-12-14T03:50:46.661Z,31.90
2022-12-14T03:53:52.342Z,46.30
2022-12-14T03:56:26.704Z,51.20
2022-12-14T03:59:21.594Z,52.60
2022-12-14T04:02:13.024Z,45.40
2022-12-14T04:05:21.690Z,45.50
2022-12-14T04:08:30.348Z,49.70
2022-12-14T04:11:35.155Z,46.30
2022-12-14T04:14:46.648Z,54.00
2022-12-14T04:17:40.195Z,56.00
2022-12-14T04:20:37.452Z,42.70
2022-12-14T04:23:45.045Z,44.10
2022-12-14T04:26:32.795Z,47.40
2022-12-14T04:29:42.723Z,48.40
2022-12-14T04:32:42.313Z,53.10
2022-12-14T04:35:18.684Z,49.60
2022-12-14T04:37:52.429Z,59.50
2022-12-14T04:40:44.755Z,51.10
2022-12-14T04:43:31.452Z,46.90
2022-12-14T04:49:17.588Z,51.80
2022-12-14T04:52:15.694Z,49.10
2022-12-14T04:55:29.283Z,55.20
2022-12-14T04:58:14.579Z,52.80
2022-12-14T05:01:15.691Z,51.20
2022-12-14T05:04:31.451Z,54.90
2022-12-14T05:07:20.448Z,51.70
2022-12-14T05:10:22.857Z,51.70
2022-12-14T05:12:54.816Z,56.60
2022-12-14T05:15:50.861Z,61.80
2022-12-14T05:18:20.502Z,62.30
2022-12-14T05:20:50.283Z,66.70
2022-12-14T05:23:32.694Z,64.20
2022-12-14T05:26:01.973Z,63.30
2022-12-14T05:28:50.162Z,56.70
2022-12-14T05:31:19.308Z,69.90
2022-12-14T05:33:48.079Z,62.10
2022-12-14T05:36:17.817Z,58.20
2022-12-14T05:38:47.549Z,53.80
2022-12-14T05:41:29.823Z,58.10
2022-12-14T05:43:58.632Z,54.10
2022-12-14T05:46:27.545Z,61.60
2022-12-14T05:49:10.566Z,52.60
2022-12-14T05:51:53.121Z,58.20
2022-12-14T05:54:35.792Z,55.50
2022-12-14T05:57:18.330Z,52.40
2022-12-14T05:59:47.884Z,51.30
2022-12-14T06:02:30.327Z,45.60
2022-12-14T06:05:12.767Z,57.70
2022-12-14T06:07:55.713Z,50.10
2022-12-14T06:10:38.435Z,54.30
2022-12-14T06:13:07.222Z,52.70
2022-12-14T06:15:36.674Z,62.40
2022-12-14T06:18:20.387Z,58.70
2022-12-14T06:21:03.632Z,63.00
2022-12-14T06:23:46.504Z,73.60
2022-12-14T06:26:16.967Z,81.70
2022-12-14T06:28:45.911Z,85.10
2022-12-14T06:31:24.939Z,72.10
2022-12-14T06:34:07.584Z,65.90
2022-12-14T06:36:39.348Z,75.20
2022-12-14T06:39:13.246Z,72.30
2022-12-14T06:41:43.189Z,60.20
2022-12-14T06:44:14.467Z,57.90
2022-12-14T06:46:57.141Z,58.10
2022-12-14T06:49:39.423Z,62.90
2022-12-14T06:52:26.459Z,68.20
2022-12-14T06:54:55.731Z,70.10
2022-12-14T06:57:24.872Z,66.20
2022-12-14T06:59:53.486Z,63.30
2022-12-14T07:02:36.360Z,67.90
2022-12-14T07:05:06.825Z,64.50
2022-12-14T07:07:36.149Z,72.50
2022-12-14T07:10:18.541Z,76.30
2022-12-14T07:13:01.198Z,92.60
2022-12-14T07:15:43.773Z,78.00
2022-12-14T07:18:12.649Z,73.70
2022-12-14T07:20:41.527Z,70.00
2022-12-14T07:26:17.788Z,73.30
2022-12-14T07:29:01.309Z,73.70
2022-12-14T07:31:30.340Z,83.60
2022-12-14T07:34:00.429Z,88.00
2022-12-14T07:36:31.190Z,74.80
2022-12-14T07:38:59.876Z,79.70
2022-12-14T07:41:42.562Z,88.90
2022-12-14T07:44:25.289Z,75.90
2022-12-14T07:47:07.664Z,82.40
2022-12-14T07:49:36.386Z,101.50
2022-12-14T07:52:05.563Z,98.50
2022-12-14T07:54:49.075Z,86.90
2022-12-14T07:57:32.435Z,79.20
2022-12-14T08:00:01.278Z,79.30
2022-12-14T08:02:55.747Z,84.40
2022-12-14T08:05:24.686Z,77.70
2022-12-14T08:07:53.304Z,98.30
2022-12-14T08:10:40.285Z,79.30
2022-12-14T08:13:23.082Z,74.70
2022-12-14T08:16:14.589Z,65.50
2022-12-14T08:18:43.980Z,87.20
2022-12-14T08:21:27.210Z,82.10
2022-12-14T08:23:57.568Z,88.20
2022-12-14T08:26:33.506Z,80.30
2022-12-14T08:29:19.146Z,82.00
2022-12-14T08:32:01.696Z,85.70
2022-12-14T08:34:30.745Z,88.50
2022-12-14T08:36:59.740Z,83.40
2022-12-14T08:39:28.488Z,87.80
2022-12-14T08:42:11.147Z,80.80
2022-12-14T08:44:39.841Z,74.90
2022-12-14T08:47:08.529Z,96.60
2022-12-14T08:49:51.088Z,90.50
2022-12-14T08:52:33.427Z,81.70
2022-12-14T08:55:01.950Z,109.60
2022-12-14T09:00:44.151Z,88.20
2022-12-14T09:03:13.173Z,98.90
2022-12-14T09:05:55.908Z,94.70
2022-12-14T09:08:38.443Z,91.90
2022-12-14T09:11:10.149Z,95.00
2022-12-14T09:13:56.899Z,91.10
2022-12-14T09:16:26.880Z,90.40
2022-12-14T09:19:09.338Z,77.10
2022-12-14T09:21:39.138Z,93.40
2022-12-14T09:24:08.075Z,109.80
2022-12-14T09:26:36.891Z,85.70
2022-12-14T09:29:20.694Z,96.20
2022-12-14T09:31:49.823Z,90.20
2022-12-14T09:34:32.232Z,83.60
2022-12-14T09:37:04.854Z,95.90
2022-12-14T09:39:34.624Z,75.70
2022-12-14T09:42:38.625Z,82.50
2022-12-14T09:45:18.984Z,90.40
2022-12-14T09:48:04.572Z,83.80
2022-12-14T09:50:50.257Z,86.10
2022-12-14T09:53:36.025Z,82.40
2022-12-14T09:56:07.376Z,86.60
2022-12-14T09:58:59.089Z,95.20
2022-12-14T10:02:30.203Z,86.30
2022-12-14T10:05:17.768Z,74.40
2022-12-14T10:08:12.888Z,76.20
2022-12-14T10:10:51.296Z,75.10
2022-12-14T10:14:12.606Z,63.00
2022-12-14T10:17:13.956Z,73.00
2022-12-14T10:20:01.175Z,74.70
2022-12-14T10:22:36.525Z,85.70
2022-12-14T10:25:24.494Z,90.90
2022-12-14T10:28:48.693Z,95.50
2022-12-14T10:31:45.061Z,96.20
2022-12-14T10:34:30.448Z,94.50
2022-12-14T10:37:35.642Z,90.80
2022-12-14T10:40:33.600Z,76.50
2022-12-14T10:43:22.135Z,89.50
2022-12-14T10:46:00.224Z,64.90
2022-12-14T10:48:46.953Z,72.60
2022-12-14T10:51:37.961Z,87.20
2022-12-14T10:54:45.868Z,83.40
2022-12-14T10:57:29.130Z,77.70
2022-12-14T11:00:09.434Z,72.20
2022-12-14T11:02:58.197Z,71.60
2022-12-14T11:06:05.500Z,64.80
2022-12-14T11:08:49.805Z,59.80
2022-12-14T11:11:23.009Z,75.50
2022-12-14T11:16:41.549Z,60.90
2022-12-14T11:19:22.309Z,71.80
2022-12-14T11:22:06.970Z,72.40
2022-12-14T11:24:49.545Z,74.40
2022-12-14T11:27:21.840Z,67.30
2022-12-14T11:29:52.193Z,79.90
2022-12-14T11:32:25.063Z,79.60
2022-12-14T11:35:17.618Z,74.40
2022-12-14T11:37:50.069Z,81.90
2022-12-14T11:40:25.831Z,78.80
2022-12-14T11:43:23.882Z,75.60
2022-12-14T11:46:06.912Z,82.20
2022-12-14T11:48:50.078Z,79.70
2022-12-14T11:51:18.750Z,85.50
2022-12-14T11:54:04.261Z,89.60
2022-12-14T11:56:37.711Z,85.00
2022-12-14T12:01:49.742Z,102.30
2022-12-14T12:04:40.128Z,115.30
2022-12-14T12:07:24.516Z,128.60
2022-12-14T12:09:54.583Z,109.30
2022-12-14T12:12:37.321Z,104.00
2022-12-14T12:15:25.963Z,113.90
2022-12-14T12:18:00.947Z,105.70
2022-12-14T12:20:39.863Z,102.60
2022-12-14T12:23:16.002Z,97.70
2022-12-14T12:25:48.969Z,92.40
2022-12-14T12:28:27.719Z,109.20
2022-12-14T12:31:09.003Z,119.20
2022-12-14T12:34:01.254Z,109.90
2022-12-14T12:36:33.021Z,112.20
2022-12-14T12:39:02.021Z,97.90
2022-12-14T12:42:19.927Z,105.90
2022-12-14T12:45:27.613Z,108.90
2022-12-14T12:48:15.265Z,89.70
2022-12-14T12:50:50.175Z,90.20
2022-12-14T12:53:18.675Z,112.30
2022-12-14T12:56:23.129Z,102.90
2022-12-14T12:58:54.603Z,99.20
2022-12-14T13:01:38.164Z,105.60
2022-12-14T13:04:42.020Z,132.50
2022-12-14T13:07:26.813Z,114.30
2022-12-14T13:10:31.666Z,117.40
2022-12-14T13:13:10.448Z,105.60
2022-12-14T13:15:44.591Z,108.70
2022-12-14T13:18:57.775Z,120.60
2022-12-14T13:21:44.285Z,104.80
2022-12-14T13:24:21.862Z,118.50
2022-12-14T13:27:04.804Z,101.00
2022-12-14T13:29:52.456Z,107.30
2022-12-14T13:32:46.228Z,122.70
2022-12-14T13:35:56.708Z,151.00
2022-12-14T13:38:59.158Z,117.70
2022-12-14T13:41:49.621Z,99.80
2022-12-14T13:44:47.909Z,113.50
2022-12-14T13:47:22.199Z,106.80
2022-12-14T13:50:35.341Z,111.90
2022-12-14T13:53:03.126Z,107.60
2022-12-14T13:55:54.613Z,100.20
2022-12-14T13:58:26.214Z,101.70
2022-12-14T14:00:59.944Z,125.00
2022-12-14T14:03:34.818Z,110.80
2022-12-14T14:06:36.734Z,120.40
2022-12-14T14:09:38.151Z,111.00
2022-12-14T14:12:32.336Z,85.80
2022-12-14T14:15:31.930Z,117.10
2022-12-14T14:18:17.173Z,93.40
2022-12-14T14:20:58.624Z,115.30
2022-12-14T14:23:32.648Z,103.20
2022-12-14T14:26:22.864Z,108.50
2022-12-14T14:29:09.872Z,99.20
2022-12-14T14:31:58.459Z,101.30
2022-12-14T14:34:43.783Z,114.10
2022-12-14T14:37:33.054Z,116.20
2022-12-14T14:40:51.401Z,109.80
2022-12-14T14:43:38.523Z,100.60
2022-12-14T14:46:32.525Z,105.40
2022-12-14T14:49:21.225Z,108.90
2022-12-14T14:51:50.745Z,109.40
2022-12-14T14:55:10.704Z,103.30
2022-12-14T14:58:02.273Z,112.00
2022-12-14T15:00:41.240Z,109.80
2022-12-14T15:03:15.550Z,112.30
2022-12-14T15:05:44.573Z,115.30
2022-12-14T15:08:34.513Z,108.20
2022-12-14T15:11:20.833Z,112.90
2022-12-14T15:13:54.190Z,100.00
2022-12-14T15:16:28.870Z,105.70
2022-12-14T15:19:20.896Z,106.60
2022-12-14T15:21:56.724Z,111.50
2022-12-14T15:24:26.584Z,116.10
2022-12-14T15:26:55.788Z,109.70
2022-12-14T15:29:38.129Z,106.70
2022-12-14T15:32:07.238Z,111.90
2022-12-14T15:34:36.299Z,115.90
2022-12-14T15:37:05.219Z,118.20
2022-12-14T15:39:40.264Z,108.30
2022-12-14T15:42:23.155Z,105.40
2022-12-14T15:45:14.966Z,112.00
2022-12-14T15:48:34.697Z,115.10
2022-12-14T15:51:16.864Z,108.60
2022-12-14T15:53:51.769Z,110.40
2022-12-14T15:56:38.308Z,123.20
2022-12-14T15:59:16.508Z,113.90
2022-12-14T16:02:15.583Z,111.80
2022-12-14T16:04:45.772Z,110.00
2022-12-14T16:07:37.792Z,115.20
2022-12-14T16:10:21.506Z,105.10
2022-12-14T16:12:55.748Z,114.20
2022-12-14T16:15:27.784Z,110.30
2022-12-14T16:18:02.701Z,104.60
2022-12-14T16:20:37.813Z,105.20
2022-12-14T16:23:18.896Z,111.90
2022-12-14T16:25:54.087Z,107.00
2022-12-14T16:28:39.739Z,91.70
2022-12-14T16:31:22.687Z,89.00
2022-12-14T16:34:19.854Z,99.50
2022-12-14T16:37:22.595Z,113.00
2022-12-14T16:39:46.000Z,112.80
2022-12-14T16:42:23.477Z,100.00
2022-12-14T16:44:56.725Z,95.10
2022-12-14T16:48:18.778Z,98.70
2022-12-14T16:51:33.106Z,93.00
2022-12-14T16:54:28.592Z,106.70
2022-12-14T16:57:31.186Z,102.60
2022-12-14T17:00:04.109Z,102.10
2022-12-14T17:02:48.175Z,107.70
2022-12-14T17:05:21.294Z,102.20
2022-12-14T17:07:50.480Z,113.30
2022-12-14T17:10:27.326Z,92.90
2022-12-14T17:13:04.124Z,93.40
2022-12-14T17:15:35.649Z,104.30
2022-12-14T17:18:08.121Z,96.00
2022-12-14T17:20:39.525Z,105.70
2022-12-14T17:23:15.488Z,97.20
2022-12-14T17:25:59.474Z,100.60
2022-12-14T17:28:33.127Z,86.70
2022-12-14T17:31:18.404Z,99.30
2022-12-14T17:33:47.839Z,96.50
2022-12-14T17:36:16.740Z,90.10
2022-12-14T17:38:45.915Z,96.60
2022-12-14T17:41:23.812Z,88.50
2022-12-14T17:43:58.339Z,94.10
2022-12-14T17:46:27.168Z,84.70
2022-12-14T17:48:56.989Z,91.40
2022-12-14T17:51:30.370Z,93.10
2022-12-14T17:54:00.041Z,95.80
2022-12-14T17:56:42.820Z,99.20
2022-12-14T17:59:11.550Z,99.30
2022-12-14T18:01:54.490Z,97.90
2022-12-14T18:04:23.405Z,90.50
2022-12-14T18:06:52.237Z,89.60
2022-12-14T18:09:21.085Z,95.40
2022-12-14T18:15:38.096Z,93.60
2022-12-14T18:18:07.859Z,94.70
2022-12-14T18:20:40.469Z,88.50
2022-12-14T18:23:18.592Z,90.50
2022-12-14T18:25:53.139Z,86.80
2022-12-14T18:28:37.039Z,97.80
2022-12-14T18:31:09.429Z,98.10
2022-12-14T18:33:39.843Z,94.30
2022-12-14T18:36:23.160Z,107.10
2022-12-14T18:38:53.347Z,97.10
2022-12-14T18:41:24.994Z,90.00
2022-12-14T18:43:56.283Z,85.50
2022-12-14T18:46:25.657Z,84.40
2022-12-14T18:49:08.195Z,99.60
2022-12-14T18:51:50.904Z,108.10
2022-12-14T18:54:19.495Z,95.50
2022-12-14T18:56:49.325Z,104.00
2022-12-14T18:59:19.234Z,99.80
2022-12-14T19:02:02.762Z,104.50
2022-12-14T19:04:32.102Z,101.30
2022-12-14T19:07:00.975Z,95.20
2022-12-14T19:09:29.704Z,111.90
2022-12-14T19:11:58.487Z,106.10
2022-12-14T19:14:27.379Z,104.40
2022-12-14T19:16:56.681Z,111.30
2022-12-14T19:19:31.205Z,112.80
2022-12-14T19:22:18.587Z,111.90
2022-12-14T19:24:52.126Z,108.50
2022-12-14T19:27:42.631Z,115.50
2022-12-14T19:30:14.163Z,101.70
2022-12-14T19:32:47.497Z,93.30
2022-12-14T19:35:23.993Z,102.70
2022-12-14T19:37:53.276Z,104.10
2022-12-14T19:40:22.018Z,104.50
2022-12-14T19:42:50.779Z,94.10
2022-12-14T19:45:19.472Z,109.50
2022-12-14T19:47:48.270Z,108.60
2022-12-14T19:50:17.515Z,102.20
2022-12-14T19:52:46.723Z,104.60
2022-12-14T19:55:19.874Z,103.90
2022-12-14T19:57:50.331Z,104.00
2022-12-14T20:00:19.181Z,107.20
2022-12-14T20:02:49.881Z,109.40
2022-12-14T20:05:19.309Z,116.40
2022-12-14T20:07:48.300Z,110.00
2022-12-14T20:10:17.146Z,96.60
2022-12-14T20:12:45.827Z,114.50
2022-12-14T20:15:15.177Z,112.50
2022-12-14T20:17:44.430Z,101.80
2022-12-14T20:20:12.974Z,112.20
2022-12-14T20:22:41.545Z,99.40
2022-12-14T20:25:10.163Z,113.00
2022-12-14T20:27:40.981Z,108.20
2022-12-14T20:30:23.633Z,106.80
2022-12-14T20:32:52.418Z,109.70
2022-12-14T20:35:21.093Z,106.80
2022-12-14T20:37:53.523Z,100.20
2022-12-14T20:40:22.183Z,107.10
2022-12-14T20:42:50.699Z,106.20
2022-12-14T20:45:19.292Z,106.80
2022-12-14T20:47:47.908Z,116.00
2022-12-14T20:50:16.448Z,108.90
2022-12-14T20:52:44.954Z,105.20
2022-12-14T20:55:18.205Z,110.30
2022-12-14T20:57:46.764Z,99.90
2022-12-14T21:00:15.851Z,125.40
2022-12-14T21:02:44.457Z,111.90
2022-12-14T21:05:13.264Z,96.10
2022-12-14T21:07:41.856Z,115.30
2022-12-14T21:10:10.488Z,105.00
2022-12-14T21:12:39.334Z,115.90
2022-12-14T21:15:08.536Z,96.80
2022-12-14T21:17:37.338Z,109.40
2022-12-14T21:20:06.220Z,127.30
2022-12-14T21:22:35.685Z,114.60
2022-12-14T21:25:06.136Z,112.00
2022-12-14T21:27:38.663Z,116.00
2022-12-14T21:30:21.294Z,108.50
2022-12-14T21:32:49.968Z,107.70
2022-12-14T21:35:18.725Z,103.60
2022-12-14T21:37:47.261Z,99.50
2022-12-14T21:40:35.868Z,124.10
2022-12-14T21:43:05.146Z,117.90
2022-12-14T21:45:34.284Z,111.40
2022-12-14T21:48:04.139Z,94.40
2022-12-14T21:50:32.874Z,103.90
2022-12-14T21:53:02.016Z,116.40
2022-12-14T21:55:30.791Z,121.20
2022-12-14T21:58:19.263Z,97.30
2022-12-14T22:00:48.027Z,93.90
2022-12-14T22:03:16.632Z,98.60
2022-12-14T22:05:45.272Z,113.00
2022-12-14T22:08:13.803Z,100.00
2022-12-14T22:10:42.561Z,110.60
2022-12-14T22:13:11.825Z,98.50
2022-12-14T22:15:41.014Z,111.10
2022-12-14T22:18:10.318Z,106.30
2022-12-14T22:20:39.292Z,106.80
2022-12-14T22:23:08.005Z,90.90
2022-12-14T22:25:50.635Z,108.40
2022-12-14T22:28:32.996Z,105.00
2022-12-14T22:31:15.631Z,109.90
2022-12-14T22:33:44.819Z,101.60
2022-12-14T22:36:19.151Z,104.00
2022-12-14T22:39:02.150Z,114.50
2022-12-14T22:41:31.464Z,113.40
2022-12-14T22:44:00.301Z,109.70
2022-12-14T22:46:29.136Z,110.00
2022-12-14T22:49:16.911Z,102.90
2022-12-14T22:51:59.597Z,113.90
2022-12-14T22:54:42.279Z,117.10
2022-12-14T22:57:24.896Z,112.10
2022-12-14T23:00:00.627Z,99.90
2022-12-14T23:02:48.113Z,94.10
2022-12-14T23:05:18.944Z,102.40
2022-12-14T23:07:47.860Z,106.80
2022-12-14T23:10:35.575Z,106.10
2022-12-14T23:13:37.011Z,110.20
2022-12-14T23:16:25.224Z,117.20
2022-12-14T23:19:26.309Z,109.60
2022-12-14T23:22:27.436Z,117.80
2022-12-14T23:25:15.282Z,108.10
2022-12-14T23:28:02.480Z,115.60
2022-12-14T23:31:03.805Z,109.50
2022-12-14T23:33:51.705Z,111.90
2022-12-14T23:36:39.842Z,113.90
2022-12-14T23:39:27.591Z,115.40
2022-12-14T23:42:29.043Z,106.00
2022-12-14T23:45:16.660Z,134.70
2022-12-14T23:48:04.607Z,122.30
2022-12-14T23:51:05.941Z,122.00
2022-12-14T23:54:07.514Z,118.70
2022-12-14T23:56:55.653Z,117.70
2022-12-14T23:59:56.904Z,113.90
